Time;durP1;ratioP1;P1;durP2;ratioP2;P2;SDS_P1;SDS_P2;PMS_P1;PMS_P2;Temp;Humidity;BMP_temperature;BMP_pressure;BME280_temperature;BME280_humidity;BME280_pressure;Samples;Min_cycle;Max_cycle;Signal;HPM_P1;HPM_P2
2021/10/17 00:00:58;;;;;;;17.90;3.87;;;;;;;-145.18;0.00;102943.50;5120490;27;20029;-69
2021/10/17 00:03:23;;;;;;;7.43;2.83;;;;;;;-145.18;0.00;102943.50;5126592;27;20050;-69
2021/10/17 00:05:49;;;;;;;7.67;2.80;;;;;;;-145.18;0.00;102943.50;5124691;27;20215;-69
2021/10/17 00:08:14;;;;;;;6.17;2.60;;;;;;;-145.18;0.00;102943.50;5112440;27;20233;-69
2021/10/17 00:10:40;;;;;;;8.80;3.10;;;;;;;-145.18;0.00;102943.50;5118981;27;20396;-69
2021/10/17 00:13:07;;;;;;;8.57;3.47;;;;;;;-145.18;0.00;102943.50;5113062;27;20023;-69
2021/10/17 00:15:36;;;;;;;9.90;3.83;;;;;;;-145.18;0.00;102943.50;5112242;27;20167;-69
2021/10/17 00:18:03;;;;;;;9.57;2.97;;;;;;;-145.18;0.00;102943.50;5109328;27;20058;-69
2021/10/17 00:20:29;;;;;;;8.77;3.10;;;;;;;-145.18;0.00;102943.50;5111184;27;20035;-69
2021/10/17 00:22:55;;;;;;;10.20;3.03;;;;;;;-145.18;0.00;102943.50;5122063;27;20102;-69
2021/10/17 00:25:21;;;;;;;11.90;3.23;;;;;;;-145.18;0.00;102943.50;5109605;27;20209;-69
2021/10/17 00:27:47;;;;;;;7.03;3.30;;;;;;;-145.18;0.00;102943.50;5110486;27;20047;-69
2021/10/17 00:30:13;;;;;;;16.17;3.47;;;;;;;-145.18;0.00;102943.50;5116008;27;20049;-69
2021/10/17 00:32:39;;;;;;;8.60;3.23;;;;;;;-145.18;0.00;102943.50;5107071;27;20020;-69
2021/10/17 00:35:07;;;;;;;11.20;3.23;;;;;;;-145.18;0.00;102943.50;5107185;27;20345;-69
2021/10/17 00:37:34;;;;;;;14.77;3.63;;;;;;;-145.18;0.00;102943.50;5113789;27;20227;-69
2021/10/17 00:40:11;;;;;;;12.90;3.57;;;;;;;-145.18;0.00;102943.50;5116441;27;20111;-69
2021/10/17 00:42:38;;;;;;;11.07;3.30;;;;;;;-145.18;0.00;102943.50;5110159;27;20750;-69
2021/10/17 00:45:08;;;;;;;10.93;3.30;;;;;;;-145.18;0.00;102943.50;5113217;27;20061;-69
2021/10/17 00:47:34;;;;;;;10.40;3.80;;;;;;;-145.18;0.00;102943.50;5112768;27;20023;-69
2021/10/17 00:50:00;;;;;;;8.80;3.73;;;;;;;-145.18;0.00;102943.50;5122026;27;20468;-69
2021/10/17 00:52:26;;;;;;;11.33;3.50;;;;;;;-145.18;0.00;102943.50;5117350;27;20226;-69
2021/10/17 00:54:52;;;;;;;12.03;3.40;;;;;;;-145.18;0.00;102943.50;5113443;27;20039;-69
2021/10/17 00:57:18;;;;;;;9.80;3.67;;;;;;;-145.18;0.00;102943.50;5103498;27;20035;-69
2021/10/17 00:59:45;;;;;;;15.07;3.30;;;;;;;-145.18;0.00;102943.50;5108990;27;20338;-69
2021/10/17 01:02:11;;;;;;;10.17;3.60;;;;;;;-145.18;0.00;102943.50;5121315;22;20067;-65
2021/10/17 01:04:41;;;;;;;13.20;4.10;;;;;;;-145.18;0.00;102943.50;5070266;28;20044;-65
2021/10/17 01:07:07;;;;;;;11.43;3.57;;;;;;;-145.18;0.00;102943.50;5071096;28;20586;-65
2021/10/17 01:09:35;;;;;;;11.07;3.73;;;;;;;-145.18;0.00;102943.50;5071857;28;20293;-66
2021/10/17 01:12:01;;;;;;;15.97;4.57;;;;;;;-145.18;0.00;102943.50;5072804;28;20487;-65
2021/10/17 01:14:27;;;;;;;11.40;3.90;;;;;;;-145.18;0.00;102943.50;5071558;28;20036;-65
2021/10/17 01:16:53;;;;;;;11.60;3.97;;;;;;;-145.18;0.00;102943.50;5067422;28;20499;-66
2021/10/17 01:19:19;;;;;;;8.17;3.50;;;;;;;-145.18;0.00;102943.50;5066719;28;20265;-66
2021/10/17 01:21:45;;;;;;;12.70;3.67;;;;;;;-145.18;0.00;102943.50;5070653;28;20028;-66
2021/10/17 01:24:13;;;;;;;9.87;3.43;;;;;;;-145.18;0.00;102943.50;5065063;28;20193;-66
2021/10/17 01:26:40;;;;;;;9.10;3.87;;;;;;;-145.18;0.00;102943.50;5071958;28;20036;-65
2021/10/17 01:29:06;;;;;;;12.07;4.03;;;;;;;-145.18;0.00;102943.50;5076082;28;20093;-65
2021/10/17 01:31:53;;;;;;;12.20;3.73;;;;;;;-145.18;0.00;102943.50;5065727;28;20059;-66
2021/10/17 01:34:21;;;;;;;11.23;3.70;;;;;;;-145.18;0.00;102943.50;5073921;28;20028;-66
2021/10/17 01:36:46;;;;;;;8.93;3.23;;;;;;;-145.18;0.00;102943.50;5078450;28;20411;-66
2021/10/17 01:39:14;;;;;;;11.10;3.67;;;;;;;-145.18;0.00;102943.50;5069445;28;20036;-66
2021/10/17 01:41:40;;;;;;;10.53;3.60;;;;;;;-145.18;0.00;102943.50;5077705;28;20055;-66
2021/10/17 01:44:08;;;;;;;7.67;3.40;;;;;;;-145.18;0.00;102943.50;5067903;28;20084;-68
2021/10/17 01:46:35;;;;;;;12.23;4.23;;;;;;;-145.18;0.00;102943.50;5066510;28;20401;-68
2021/10/17 01:49:02;;;;;;;11.67;4.17;;;;;;;-145.18;0.00;102943.50;5063197;28;20441;-68
2021/10/17 01:51:27;;;;;;;9.60;3.63;;;;;;;-145.18;0.00;102943.50;5060306;28;20035;-68
2021/10/17 01:53:53;;;;;;;14.80;4.20;;;;;;;-145.18;0.00;102943.50;5072967;28;20040;-68
2021/10/17 01:56:18;;;;;;;12.27;3.40;;;;;;;-145.18;0.00;102943.50;5077436;28;20032;-68
2021/10/17 01:58:44;;;;;;;12.97;3.60;;;;;;;-145.18;0.00;102943.50;5068260;28;20039;-68
2021/10/17 02:01:10;;;;;;;10.13;3.23;;;;;;;-145.18;0.00;102943.50;5064386;28;20280;-68
2021/10/17 02:03:36;;;;;;;9.47;3.47;;;;;;;-145.18;0.00;102943.50;5077631;28;20056;-68
2021/10/17 02:06:02;;;;;;;11.10;3.40;;;;;;;-145.18;0.00;102943.50;5082251;28;20028;-68
2021/10/17 02:08:28;;;;;;;19.70;4.83;;;;;;;-145.18;0.00;102943.50;5074676;28;20581;-68
2021/10/17 02:10:54;;;;;;;15.07;3.67;;;;;;;-145.18;0.00;102943.50;5066964;28;20024;-68
2021/10/17 02:13:20;;;;;;;12.80;4.47;;;;;;;-145.18;0.00;102943.50;5077857;28;20415;-68
2021/10/17 02:15:45;;;;;;;15.07;3.80;;;;;;;-145.18;0.00;102943.50;5081680;28;20647;-68
2021/10/17 02:18:11;;;;;;;13.20;3.73;;;;;;;-145.18;0.00;102943.50;5077540;28;20034;-68
2021/10/17 02:20:36;;;;;;;13.90;3.80;;;;;;;-145.18;0.00;102943.50;5080609;28;20062;-68
2021/10/17 02:23:04;;;;;;;13.63;3.50;;;;;;;-145.18;0.00;102943.50;5081627;28;20027;-68
2021/10/17 02:25:30;;;;;;;9.57;3.70;;;;;;;-145.18;0.00;102943.50;5066871;28;20032;-68
2021/10/17 02:27:56;;;;;;;17.13;3.60;;;;;;;-145.18;0.00;102943.50;5071819;28;20039;-68
2021/10/17 02:30:21;;;;;;;9.17;4.70;;;;;;;-145.18;0.00;102943.50;5064153;28;20032;-68
2021/10/17 02:32:47;;;;;;;13.53;3.57;;;;;;;-145.18;0.00;102943.50;5082211;28;20111;-71
2021/10/17 02:35:12;;;;;;;8.17;3.10;;;;;;;-145.18;0.00;102943.50;5080856;28;20043;-72
2021/10/17 02:37:38;;;;;;;9.23;3.67;;;;;;;-145.18;0.00;102943.50;5080860;28;20078;-72
2021/10/17 02:40:05;;;;;;;9.10;3.87;;;;;;;-145.18;0.00;102943.50;5080903;28;20032;-72
2021/10/17 02:42:31;;;;;;;10.10;3.50;;;;;;;-145.18;0.00;102943.50;5071626;28;20115;-72
2021/10/17 02:44:56;;;;;;;6.47;3.27;;;;;;;-145.18;0.00;102943.50;5068714;28;20456;-72
2021/10/17 02:47:22;;;;;;;10.67;3.80;;;;;;;-145.18;0.00;102943.50;5076761;28;20137;-72
2021/10/17 02:49:47;;;;;;;8.73;3.43;;;;;;;-145.18;0.00;102943.50;5071726;28;20043;-72
2021/10/17 02:52:12;;;;;;;16.47;4.40;;;;;;;-145.18;0.00;102943.50;5081052;28;20028;-71
2021/10/17 02:54:38;;;;;;;14.30;3.73;;;;;;;-145.18;0.00;102943.50;5073467;28;20260;-71
2021/10/17 02:57:10;;;;;;;16.00;3.97;;;;;;;-145.18;0.00;102943.50;5079655;28;20185;-72
2021/10/17 02:59:36;;;;;;;9.15;3.63;;;;;;;-145.18;0.00;102943.50;5080617;28;20522;-72
2021/10/17 03:02:04;;;;;;;11.00;3.60;;;;;;;-145.18;0.00;102943.50;5065852;28;20036;-71
2021/10/17 03:04:30;;;;;;;8.03;3.40;;;;;;;-145.18;0.00;102943.50;5060796;28;20119;-71
2021/10/17 03:06:57;;;;;;;11.63;3.17;;;;;;;-145.18;0.00;102943.50;5062951;28;20031;-72
2021/10/17 03:09:25;;;;;;;11.40;3.50;;;;;;;-145.18;0.00;102943.50;5067366;28;20040;-72
2021/10/17 03:11:53;;;;;;;11.40;3.20;;;;;;;-145.18;0.00;102943.50;5061949;28;20020;-71
2021/10/17 03:14:19;;;;;;;12.57;3.80;;;;;;;-145.18;0.00;102943.50;5077736;28;20027;-72
2021/10/17 03:16:47;;;;;;;10.57;3.43;;;;;;;-145.18;0.00;102943.50;5079361;28;20028;-71
2021/10/17 03:19:13;;;;;;;10.80;3.47;;;;;;;-145.18;0.00;102943.50;5073596;28;20027;-71
2021/10/17 03:21:39;;;;;;;11.07;3.43;;;;;;;-145.18;0.00;102943.50;5078399;28;20107;-74
2021/10/17 03:24:05;;;;;;;10.23;3.33;;;;;;;-145.18;0.00;102943.50;5071549;28;20150;-71
2021/10/17 03:26:31;;;;;;;8.63;3.60;;;;;;;-145.18;0.00;102943.50;5075376;28;20280;-71
2021/10/17 03:28:56;;;;;;;12.13;4.17;;;;;;;-145.18;0.00;102943.50;5074177;28;20380;-71
2021/10/17 03:31:22;;;;;;;7.30;3.27;;;;;;;-145.18;0.00;102943.50;5077733;28;20111;-71
2021/10/17 03:33:47;;;;;;;9.47;3.93;;;;;;;-145.18;0.00;102943.50;5076156;28;20447;-71
2021/10/17 03:36:13;;;;;;;11.57;4.50;;;;;;;-145.18;0.00;102943.50;5078974;28;20051;-71
2021/10/17 03:38:39;;;;;;;10.90;3.67;;;;;;;-145.18;0.00;102943.50;5076833;28;20042;-71
2021/10/17 03:41:04;;;;;;;11.00;3.87;;;;;;;-145.18;0.00;102943.50;5078334;28;20020;-71
2021/10/17 03:43:30;;;;;;;12.97;3.93;;;;;;;-145.18;0.00;102943.50;5079835;28;20113;-72
2021/10/17 03:46:00;;;;;;;11.90;3.73;;;;;;;-145.18;0.00;102943.50;5072822;28;20309;-72
2021/10/17 03:48:26;;;;;;;11.83;4.17;;;;;;;-145.18;0.00;102943.50;5077737;28;20015;-72
2021/10/17 03:50:51;;;;;;;9.80;3.93;;;;;;;-145.18;0.00;102943.50;5076977;28;20237;-72
2021/10/17 03:53:17;;;;;;;11.13;3.60;;;;;;;-145.18;0.00;102943.50;5078322;28;20054;-71
2021/10/17 03:55:42;;;;;;;10.87;4.13;;;;;;;-145.18;0.00;102943.50;5077804;28;20326;-71
2021/10/17 03:58:08;;;;;;;12.67;4.00;;;;;;;-145.18;0.00;102943.50;5076116;28;20562;-71
2021/10/17 04:00:35;;;;;;;13.43;3.77;;;;;;;-145.18;0.00;102943.50;5076159;28;20024;-71
2021/10/17 04:03:01;;;;;;;9.23;3.83;;;;;;;-145.18;0.00;102943.50;5073899;28;20150;-71
2021/10/17 04:05:26;;;;;;;12.50;3.93;;;;;;;-145.18;0.00;102943.50;5075597;28;20451;-71
2021/10/17 04:07:52;;;;;;;13.20;3.97;;;;;;;-145.18;0.00;102943.50;5073535;28;20067;-71
2021/10/17 04:10:17;;;;;;;13.17;4.37;;;;;;;-145.18;0.00;102943.50;5072380;28;20499;-71
2021/10/17 04:12:43;;;;;;;11.03;3.43;;;;;;;-145.18;0.00;102943.50;5077982;28;20203;-71
2021/10/17 04:15:09;;;;;;;8.73;3.70;;;;;;;-145.18;0.00;102943.50;5074361;28;20043;-71
2021/10/17 04:17:34;;;;;;;11.17;3.70;;;;;;;-145.18;0.00;102943.50;5076795;28;20024;-71
2021/10/17 04:20:00;;;;;;;14.17;3.87;;;;;;;-145.18;0.00;102943.50;5077768;28;20503;-71
2021/10/17 04:22:26;;;;;;;13.10;4.43;;;;;;;-145.18;0.00;102943.50;5074165;28;20207;-71
2021/10/17 04:24:52;;;;;;;13.83;3.90;;;;;;;-145.18;0.00;102943.50;5077679;28;20031;-71
2021/10/17 04:27:17;;;;;;;8.93;3.87;;;;;;;-145.18;0.00;102943.50;5075501;28;20027;-71
2021/10/17 04:29:43;;;;;;;12.63;3.97;;;;;;;-145.18;0.00;102943.50;5077033;28;20199;-71
2021/10/17 04:32:09;;;;;;;12.70;4.77;;;;;;;-145.18;0.00;102943.50;5075513;28;20021;-71
2021/10/17 04:34:35;;;;;;;9.90;4.20;;;;;;;-145.18;0.00;102943.50;5074488;28;20560;-71
2021/10/17 04:37:01;;;;;;;9.30;4.00;;;;;;;-145.18;0.00;102943.50;5077531;28;20095;-71
2021/10/17 04:39:27;;;;;;;10.40;3.43;;;;;;;-145.18;0.00;102943.50;5075925;28;20031;-71
2021/10/17 04:41:53;;;;;;;12.50;4.10;;;;;;;-145.18;0.00;102943.50;5074828;28;20279;-71
2021/10/17 04:44:19;;;;;;;9.23;4.00;;;;;;;-145.18;0.00;102943.50;5077632;28;20032;-71
2021/10/17 04:46:44;;;;;;;10.23;3.90;;;;;;;-145.18;0.00;102943.50;5073356;28;20432;-71
2021/10/17 04:49:10;;;;;;;10.73;4.47;;;;;;;-145.18;0.00;102943.50;5070527;28;20024;-71
2021/10/17 04:51:35;;;;;;;13.93;4.27;;;;;;;-145.18;0.00;102943.50;5074063;28;20070;-71
2021/10/17 04:54:01;;;;;;;12.67;4.30;;;;;;;-145.18;0.00;102943.50;5069284;28;20032;-71
2021/10/17 04:56:27;;;;;;;20.80;5.27;;;;;;;-145.18;0.00;102943.50;5074538;28;20028;-71
2021/10/17 04:58:52;;;;;;;11.60;3.97;;;;;;;-145.18;0.00;102943.50;5073814;28;20055;-71
2021/10/17 05:01:18;;;;;;;11.17;4.00;;;;;;;-145.18;0.00;102943.50;5077323;28;20050;-71
2021/10/17 05:03:43;;;;;;;10.57;4.33;;;;;;;-145.18;0.00;102943.50;5074642;28;20253;-71
2021/10/17 05:06:12;;;;;;;12.60;4.43;;;;;;;-145.18;0.00;102943.50;5071832;28;20202;-71
2021/10/17 05:08:37;;;;;;;9.97;4.17;;;;;;;-145.18;0.00;102943.50;5076443;28;20495;-71
2021/10/17 05:11:03;;;;;;;10.90;4.13;;;;;;;-145.18;0.00;102943.50;5070727;28;20080;-71
2021/10/17 05:13:29;;;;;;;9.33;4.13;;;;;;;-145.18;0.00;102943.50;5077236;28;20463;-71
2021/10/17 05:15:54;;;;;;;12.70;4.10;;;;;;;-145.18;0.00;102943.50;5073474;28;20061;-71
2021/10/17 05:18:23;;;;;;;11.73;4.43;;;;;;;-145.18;0.00;102943.50;5075140;28;20020;-71
2021/10/17 05:20:48;;;;;;;14.73;4.37;;;;;;;-145.18;0.00;102943.50;5076481;28;20165;-71
2021/10/17 05:23:15;;;;;;;11.37;4.17;;;;;;;-145.18;0.00;102943.50;5074075;28;20020;-71
2021/10/17 05:25:41;;;;;;;8.43;3.80;;;;;;;-145.18;0.00;102943.50;5068304;28;20335;-71
2021/10/17 05:28:07;;;;;;;11.20;4.40;;;;;;;-145.18;0.00;102943.50;5076200;28;20059;-71
2021/10/17 05:30:33;;;;;;;10.40;4.50;;;;;;;-145.18;0.00;102943.50;5076882;28;20051;-71
2021/10/17 05:33:00;;;;;;;10.87;4.13;;;;;;;-145.18;0.00;102943.50;5070231;28;20408;-71
2021/10/17 05:35:25;;;;;;;11.97;4.20;;;;;;;-145.18;0.00;102943.50;5079324;28;20023;-71
2021/10/17 05:37:51;;;;;;;11.87;4.50;;;;;;;-145.18;0.00;102943.50;5078244;28;20545;-71
2021/10/17 05:40:16;;;;;;;12.47;4.20;;;;;;;-145.18;0.00;102943.50;5081085;28;20507;-71
2021/10/17 05:42:42;;;;;;;13.30;4.80;;;;;;;-145.18;0.00;102943.50;5078501;28;20150;-71
2021/10/17 05:45:09;;;;;;;9.37;4.43;;;;;;;-145.18;0.00;102943.50;5079356;28;20238;-71
2021/10/17 05:47:34;;;;;;;11.73;4.53;;;;;;;-145.18;0.00;102943.50;5077972;28;20027;-71
2021/10/17 05:50:00;;;;;;;12.13;4.30;;;;;;;-145.18;0.00;102943.50;5076870;28;20016;-71
2021/10/17 05:52:26;;;;;;;14.73;4.20;;;;;;;-145.18;0.00;102943.50;5080467;28;20086;-71
2021/10/17 05:54:51;;;;;;;10.17;4.20;;;;;;;-145.18;0.00;102943.50;5079608;28;20288;-71
2021/10/17 05:57:17;;;;;;;14.57;4.30;;;;;;;-145.18;0.00;102943.50;5080756;28;20415;-71
2021/10/17 05:59:42;;;;;;;10.90;4.30;;;;;;;-145.18;0.00;102943.50;5079721;28;20400;-71
2021/10/17 06:02:08;;;;;;;13.67;4.53;;;;;;;-145.18;0.00;102943.50;5080432;28;20279;-71
2021/10/17 06:04:33;;;;;;;13.27;4.30;;;;;;;-145.18;0.00;102943.50;5080665;28;20450;-71
2021/10/17 06:06:59;;;;;;;13.57;4.83;;;;;;;-145.18;0.00;102943.50;5077656;28;20062;-71
2021/10/17 06:09:25;;;;;;;10.03;4.20;;;;;;;-145.18;0.00;102943.50;5079637;28;20306;-71
2021/10/17 06:11:50;;;;;;;12.10;4.10;;;;;;;-145.18;0.00;102943.50;5078179;28;20199;-71
2021/10/17 06:14:16;;;;;;;14.13;4.93;;;;;;;-145.18;0.00;102943.50;5078896;28;20140;-71
2021/10/17 06:16:41;;;;;;;15.20;4.60;;;;;;;-145.18;0.00;102943.50;5079161;28;20101;-71
2021/10/17 06:19:07;;;;;;;13.77;5.47;;;;;;;-145.18;0.00;102943.50;5078679;28;20230;-71
2021/10/17 06:21:32;;;;;;;10.43;4.17;;;;;;;-145.18;0.00;102943.50;5078463;28;20055;-71
2021/10/17 06:23:58;;;;;;;20.10;5.07;;;;;;;-145.18;0.00;102943.50;5080569;28;20475;-71
2021/10/17 06:26:23;;;;;;;13.10;5.20;;;;;;;-145.18;0.00;102943.50;5076308;28;20256;-71
2021/10/17 06:28:49;;;;;;;10.90;3.80;;;;;;;-145.18;0.00;102943.50;5079852;28;20024;-71
2021/10/17 06:31:14;;;;;;;14.33;5.17;;;;;;;-145.18;0.00;102943.50;5080630;28;20024;-71
2021/10/17 06:33:39;;;;;;;14.37;4.53;;;;;;;-145.18;0.00;102943.50;5076662;28;20118;-71
2021/10/17 06:36:05;;;;;;;9.47;4.40;;;;;;;-145.18;0.00;102943.50;5075149;28;20152;-71
2021/10/17 06:38:30;;;;;;;13.43;4.67;;;;;;;-145.18;0.00;102943.50;5078361;28;20476;-71
2021/10/17 06:40:56;;;;;;;18.90;5.50;;;;;;;-145.18;0.00;102943.50;5077855;28;20301;-71
2021/10/17 06:43:21;;;;;;;9.77;3.93;;;;;;;-145.18;0.00;102943.50;5080539;28;20020;-71
2021/10/17 06:45:47;;;;;;;9.60;4.07;;;;;;;-145.18;0.00;102943.50;5077630;28;20526;-71
2021/10/17 06:48:12;;;;;;;11.40;4.27;;;;;;;-145.18;0.00;102943.50;5073143;28;20038;-71
2021/10/17 06:50:38;;;;;;;12.40;4.10;;;;;;;-145.18;0.00;102943.50;5077942;28;20074;-71
2021/10/17 06:53:03;;;;;;;10.50;4.03;;;;;;;-145.18;0.00;102943.50;5079877;28;20036;-71
2021/10/17 06:55:29;;;;;;;9.77;4.50;;;;;;;-145.18;0.00;102943.50;5075991;28;20098;-71
2021/10/17 06:57:54;;;;;;;10.43;4.27;;;;;;;-145.18;0.00;102943.50;5075332;28;20380;-71
2021/10/17 07:00:20;;;;;;;12.23;5.60;;;;;;;-145.18;0.00;102943.50;5073505;28;20160;-71
2021/10/17 07:02:46;;;;;;;11.83;4.70;;;;;;;-145.18;0.00;102943.50;5076688;28;20063;-71
2021/10/17 07:05:11;;;;;;;14.27;5.37;;;;;;;-145.18;0.00;102943.50;5073603;28;20449;-71
2021/10/17 07:07:37;;;;;;;13.47;4.67;;;;;;;-145.18;0.00;102943.50;5065992;28;20050;-72
2021/10/17 07:10:03;;;;;;;13.87;5.10;;;;;;;-145.18;0.00;102943.50;5080113;28;20517;-72
2021/10/17 07:12:28;;;;;;;14.63;5.03;;;;;;;-145.18;0.00;102943.50;5067178;28;20023;-72
2021/10/17 07:14:54;;;;;;;13.50;4.50;;;;;;;-145.18;0.00;102943.50;5071520;28;20025;-72
2021/10/17 07:17:20;;;;;;;15.30;5.07;;;;;;;-145.18;0.00;102943.50;5081671;28;20020;-72
2021/10/17 07:19:46;;;;;;;12.23;4.53;;;;;;;-145.18;0.00;102943.50;5080451;28;20191;-72
2021/10/17 07:22:11;;;;;;;13.20;4.70;;;;;;;-145.18;0.00;102943.50;5080410;28;20024;-71
2021/10/17 07:24:37;;;;;;;14.53;4.87;;;;;;;-145.18;0.00;102943.50;5080785;28;20446;-70
2021/10/17 07:27:02;;;;;;;16.70;4.53;;;;;;;-145.18;0.00;102943.50;5080398;28;20276;-71
2021/10/17 07:29:31;;;;;;;12.40;4.47;;;;;;;-145.18;0.00;102943.50;5080922;28;20092;-71
2021/10/17 07:32:00;;;;;;;8.87;4.20;;;;;;;-145.18;0.00;102943.50;5066703;28;20111;-72
2021/10/17 07:34:26;;;;;;;14.10;4.87;;;;;;;-145.18;0.00;102943.50;5063372;28;20024;-72
2021/10/17 07:36:51;;;;;;;10.90;4.43;;;;;;;-145.18;0.00;102943.50;5077682;28;20077;-72
2021/10/17 07:39:17;;;;;;;8.80;3.60;;;;;;;-145.18;0.00;102943.50;5077291;28;20032;-72
2021/10/17 07:41:47;;;;;;;12.87;4.50;;;;;;;-145.18;0.00;102943.50;5077985;28;20032;-72
2021/10/17 07:44:13;;;;;;;9.93;4.57;;;;;;;-145.18;0.00;102943.50;5076576;28;20147;-72
2021/10/17 07:46:39;;;;;;;11.40;3.93;;;;;;;-145.18;0.00;102943.50;5079600;28;20277;-72
2021/10/17 07:49:04;;;;;;;11.20;4.03;;;;;;;-145.18;0.00;102943.50;5078013;28;20423;-71
2021/10/17 07:51:31;;;;;;;10.10;3.70;;;;;;;-145.18;0.00;102943.50;5079195;28;20248;-71
2021/10/17 07:53:56;;;;;;;11.13;4.07;;;;;;;-145.18;0.00;102943.50;5077908;28;20578;-71
2021/10/17 07:56:22;;;;;;;11.20;3.97;;;;;;;-145.18;0.00;102943.50;5071911;28;20038;-71
2021/10/17 07:58:50;;;;;;;9.00;3.30;;;;;;;-145.18;0.00;102943.50;5078119;28;20353;-71
2021/10/17 08:01:16;;;;;;;11.57;3.80;;;;;;;-145.18;0.00;102943.50;5078786;28;20652;-71
2021/10/17 08:03:41;;;;;;;12.57;3.50;;;;;;;-145.18;0.00;102943.50;5073944;28;20159;-71
2021/10/17 08:06:07;;;;;;;8.20;3.83;;;;;;;-145.18;0.00;102943.50;5074853;28;20123;-71
2021/10/17 08:08:32;;;;;;;11.77;3.60;;;;;;;-145.18;0.00;102943.50;5071902;28;20368;-71
2021/10/17 08:10:58;;;;;;;10.57;3.47;;;;;;;-145.18;0.00;102943.50;5073800;28;20024;-71
2021/10/17 08:13:25;;;;;;;13.60;3.43;;;;;;;-145.18;0.00;102943.50;5075268;28;20608;-71
2021/10/17 08:15:51;;;;;;;8.23;3.77;;;;;;;-145.18;0.00;102943.50;5076162;28;20104;-71
2021/10/17 08:18:16;;;;;;;14.80;4.00;;;;;;;-145.18;0.00;102943.50;5076486;28;20476;-71
2021/10/17 08:20:42;;;;;;;8.17;3.40;;;;;;;-145.18;0.00;102943.50;5076049;28;20203;-71
2021/10/17 08:23:07;;;;;;;7.50;2.80;;;;;;;-145.18;0.00;102943.50;5073420;28;20036;-71
2021/10/17 08:25:33;;;;;;;8.23;3.17;;;;;;;-145.18;0.00;102943.50;5075977;28;20035;-71
2021/10/17 08:28:00;;;;;;;6.80;3.17;;;;;;;-145.18;0.00;102943.50;5059948;28;20030;-72
2021/10/17 08:30:25;;;;;;;6.93;2.97;;;;;;;-145.18;0.00;102943.50;5064144;28;20036;-71
2021/10/17 08:32:51;;;;;;;8.70;3.07;;;;;;;-145.18;0.00;102943.50;5075553;28;20035;-71
2021/10/17 08:35:16;;;;;;;11.67;3.83;;;;;;;-145.18;0.00;102943.50;5076553;28;20415;-72
2021/10/17 08:37:42;;;;;;;9.83;3.20;;;;;;;-145.18;0.00;102943.50;5076446;28;20046;-72
2021/10/17 08:40:09;;;;;;;8.57;3.20;;;;;;;-145.18;0.00;102943.50;5075601;28;20432;-72
2021/10/17 08:42:35;;;;;;;11.67;3.27;;;;;;;-145.18;0.00;102943.50;5065103;28;20699;-71
2021/10/17 08:45:01;;;;;;;11.60;3.47;;;;;;;-145.18;0.00;102943.50;5076625;28;20039;-71
2021/10/17 08:47:27;;;;;;;11.20;3.50;;;;;;;-145.18;0.00;102943.50;5070274;28;20112;-72
2021/10/17 08:49:55;;;;;;;8.07;3.30;;;;;;;-145.18;0.00;102943.50;5068986;28;20468;-72
2021/10/17 08:52:20;;;;;;;7.23;3.00;;;;;;;-145.18;0.00;102943.50;5069300;28;20032;-72
2021/10/17 08:54:46;;;;;;;9.30;2.90;;;;;;;-145.18;0.00;102943.50;5072462;28;20447;-71
2021/10/17 08:57:12;;;;;;;15.67;3.40;;;;;;;-145.18;0.00;102943.50;5073482;28;20219;-71
2021/10/17 08:59:37;;;;;;;10.47;3.40;;;;;;;-145.18;0.00;102943.50;5076074;28;20043;-71
2021/10/17 09:02:23;;;;;;;9.90;3.30;;;;;;;-145.18;0.00;102943.50;5074587;28;20038;-71
2021/10/17 09:05:09;;;;;;;9.30;3.63;;;;;;;-145.18;0.00;102943.50;5071787;28;20105;-71
2021/10/17 09:07:35;;;;;;;9.90;3.63;;;;;;;-145.18;0.00;102943.50;5074207;28;20158;-71
2021/10/17 09:10:15;;;;;;;13.27;3.20;;;;;;;-145.18;0.00;102943.50;5067658;28;20031;-71
2021/10/17 09:12:43;;;;;;;12.00;3.60;;;;;;;-145.18;0.00;102943.50;5066907;28;20720;-71
2021/10/17 09:15:30;;;;;;;10.87;3.20;;;;;;;-145.18;0.00;102943.50;5075534;28;20054;-71
2021/10/17 09:18:35;;;;;;;12.47;3.60;;;;;;;-145.18;0.00;102943.50;5071884;28;20242;-71
2021/10/17 09:21:03;;;;;;;7.70;3.03;;;;;;;-145.18;0.00;102943.50;5029207;28;20040;-72
2021/10/17 09:23:38;;;;;;;13.07;3.43;;;;;;;-145.18;0.00;102943.50;5030058;28;20029;-72
2021/10/17 09:26:13;;;;;;;9.93;3.23;;;;;;;-145.18;0.00;102943.50;5028259;28;20295;-72
2021/10/17 09:28:39;;;;;;;9.07;3.30;;;;;;;-145.18;0.00;102943.50;5032499;28;20047;-72
2021/10/17 09:31:14;;;;;;;9.60;3.40;;;;;;;-145.18;0.00;102943.50;5030949;28;20155;-72
2021/10/17 09:33:53;;;;;;;8.57;3.27;;;;;;;-145.18;0.00;102943.50;5031540;28;20578;-72
2021/10/17 09:36:32;;;;;;;9.87;3.30;;;;;;;-145.18;0.00;102943.50;5031287;28;20241;-72
2021/10/17 09:39:19;;;;;;;9.77;3.43;;;;;;;-145.18;0.00;102943.50;5025500;28;20025;-72
2021/10/17 09:41:50;;;;;;;15.10;4.67;;;;;;;-145.18;0.00;102943.50;5021906;28;20380;-72
2021/10/17 09:44:16;;;;;;;10.73;3.93;;;;;;;-145.18;0.00;102943.50;5026469;28;20261;-70
2021/10/17 09:47:00;;;;;;;9.50;2.93;;;;;;;-145.18;0.00;102943.50;5032349;28;20126;-70
2021/10/17 09:49:26;;;;;;;9.87;3.40;;;;;;;-145.18;0.00;102943.50;5024578;28;20033;-72
2021/10/17 09:52:15;;;;;;;10.20;3.60;;;;;;;-145.18;0.00;102943.50;5023286;28;20480;-72
2021/10/17 09:54:44;;;;;;;8.60;3.20;;;;;;;-145.18;0.00;102943.50;5043215;28;20048;-73
2021/10/17 09:57:09;;;;;;;9.37;3.00;;;;;;;-145.18;0.00;102943.50;5075380;28;20124;-73
2021/10/17 09:59:36;;;;;;;9.47;3.07;;;;;;;-145.18;0.00;102943.50;5071329;28;20208;-70
2021/10/17 10:02:07;;;;;;;11.60;3.10;;;;;;;-145.18;0.00;102943.50;5073617;28;20020;-70
2021/10/17 10:04:34;;;;;;;9.03;3.50;;;;;;;-145.18;0.00;102943.50;5071913;28;20185;-70
2021/10/17 10:07:00;;;;;;;9.63;3.63;;;;;;;-145.18;0.00;102943.50;5068788;28;20579;-70
2021/10/17 10:09:30;;;;;;;11.43;3.53;;;;;;;-145.18;0.00;102943.50;5071799;28;20338;-70
2021/10/17 10:11:56;;;;;;;9.27;3.60;;;;;;;-145.18;0.00;102943.50;5073669;28;20098;-70
2021/10/17 10:14:22;;;;;;;9.07;3.13;;;;;;;-145.18;0.00;102943.50;5063043;28;20028;-70
2021/10/17 10:16:53;;;;;;;9.07;2.90;;;;;;;-145.18;0.00;102943.50;5070060;28;20284;-70
2021/10/17 10:19:19;;;;;;;9.63;3.73;;;;;;;-145.18;0.00;102943.50;5071371;28;20476;-70
2021/10/17 10:21:45;;;;;;;11.77;3.87;;;;;;;-145.18;0.00;102943.50;5063706;28;20032;-70
2021/10/17 10:24:12;;;;;;;7.97;3.27;;;;;;;-145.18;0.00;102943.50;5073183;28;20561;-70
2021/10/17 10:26:40;;;;;;;12.57;3.70;;;;;;;-145.18;0.00;102943.50;5071083;28;20342;-70
2021/10/17 10:29:06;;;;;;;17.00;3.57;;;;;;;-145.18;0.00;102943.50;5067096;28;20198;-70
2021/10/17 10:31:59;;;;;;;10.37;3.43;;;;;;;-145.18;0.00;102943.50;5076189;28;20203;-70
2021/10/17 10:34:54;;;;;;;10.18;4.30;;;;;;;-145.18;0.00;102943.50;5064941;28;20056;-70
2021/10/17 10:37:25;;;;;;;14.33;3.50;;;;;;;-145.18;0.00;102943.50;5060189;28;20185;-72
2021/10/17 10:40:19;;;;;;;9.63;3.47;;;;;;;-145.18;0.00;102943.50;5070408;28;20339;-70
2021/10/17 10:42:48;;;;;;;8.23;3.33;;;;;;;-145.18;0.00;102943.50;5060469;28;20047;-72
2021/10/17 10:45:34;;;;;;;9.37;3.37;;;;;;;-145.18;0.00;102943.50;5074886;28;20518;-72
2021/10/17 10:48:17;;;;;;;8.03;3.47;;;;;;;-145.18;0.00;102943.50;5072481;28;20088;-70
2021/10/17 10:51:10;;;;;;;7.33;3.40;;;;;;;-145.18;0.00;102943.50;5066142;28;20085;-70
2021/10/17 10:53:47;;;;;;;8.87;3.40;;;;;;;-145.18;0.00;102943.50;4996026;28;20034;-70
2021/10/17 10:56:41;;;;;;;9.30;3.17;;;;;;;-145.18;0.00;102943.50;4995034;28;20034;-70
2021/10/17 10:59:08;;;;;;;6.50;2.90;;;;;;;-145.18;0.00;102943.50;4999229;28;20062;-70
2021/10/17 11:05:08;;;;;;;9.73;3.23;;;;;;;12.62;100.00;-19495.19;5090490;27;20399;-71
2021/10/17 11:07:47;;;;;;;12.80;3.07;;;;;;;12.66;100.00;-19496.25;5056514;28;20071;-71
2021/10/17 11:10:44;;;;;;;8.83;3.40;;;;;;;13.03;100.00;-19505.69;5088101;28;20028;-72
2021/10/17 11:13:24;;;;;;;9.37;3.10;;;;;;;13.18;100.00;-19509.63;5075186;28;20105;-72
2021/10/17 11:15:50;;;;;;;13.37;3.10;;;;;;;13.13;100.00;-19508.31;5091332;28;20031;-72
2021/10/17 11:18:15;;;;;;;8.40;3.00;;;;;;;12.88;100.00;-19502.03;5081979;28;20686;-71